Heavener, OK (74937)

9:32 PM CDT on October 22, 2014 (GMT -0500)
LCEM -Howe Middle School | Change Station
CLOSE
Current Station
Personal Weather Station
Location: Howe, OK
Elevation: 535 ft
Nearby Weather Stations

Elev 535 ft 34.95 °N, 94.64 °W | Updated 12 seconds ago

Partly Cloudy
Partly Cloudy
63.9 °F
Feels Like 63.9 °F
N
0.0
Wind Variable Wind from SW
Gusts 0.0 mph

Today
High -- | Low -- °F
--% Chance of Precip.
Yesterday
High -- | Low -- °F
Precip. -- in
7:30 AM 6:34 PM
Waning Crescent, 1% visible
Pressure 30.15 in
Visibility 10.0 miles
Clouds Overcast 5000 ft
Dew Point 56 °F
Humidity 76%
Rainfall 0.00 in
Snow Depth Not available.
UV 0 out of 12
Pollen 3.80 out of 12
Air Quality Not available.
Flu Activity No Activity
METAR KRKR 230215Z AUTO 00000KT 10SM OVC050 16/13 A3015 RMK AO2 T01630128

More Conditions Fewer Conditions

Pressure 30.15 in
Visibility 10.0 miles
Clouds Overcast 5000 ft
Dew Point 56 °F
Humidity 76%
Rainfall 0.00 in
Snow Depth Not available.
UV 0 out of 12
Pollen 3.80 out of 12
Air Quality Not available.
Flu Activity No Activity
METAR KRKR 230215Z AUTO 00000KT 10SM OVC050 16/13 A3015 RMK AO2 T01630128

More Conditions Fewer Conditions

Nowcast | as of 9:20 PM CDT on October 22, 2014

At 9:20 PM...Doppler radars detected scattered showers crossing into Pawnee and Osage counties. This activity extended north to south...and was also nearing western creek and Okfuskee counties. Movement was toward the northeast at around 25 mph. Through 11 PM...occasional showers will be possible for portions of eastern Oklahoma...mainly along and west of Highway 75. The majority of this activity will consist of light showers... resulting in average hourly rainfall of less than one tenth of an inch. Embedded moderate rainfall will be possible...and may produce amounts of just over a tenth of an inch.

×

10-Day Weather Forecast

Almanac

Astronomy

Oct. 22, 2014 Rise Set
Actual Time 7:30 AM CDT 6:34 PM CDT
Civil Twilight 7:04 AM CDT 7:00 PM CDT
Nautical Twilight 6:34 AM CDT 7:30 PM CDT
Astronomical Twilight 6:05 AM CDT 7:59 PM CDT
Moon 6:15 AM CDT (10/22) 6:00 PM CDT (10/22)
Length of Visible Light 11h 56m
Length of Day
11h 04m
Tomorrow will be 2m 3s shorter.
Waning Crescent, 1% of the Moon is Illuminated
Today
Waning Crescent
Oct 23
New
Oct 30
First Quarter
Nov 6
Full
Nov 14
Last Quarter

Today's Extremes

State Highs State Lows

Community

WunderPhotos

Upload Photos

1,764,109 photos uploaded!

Nearby

Snow Depth

Station Depth Elevation
No new snow has been reported.

Earthquake Activity

City Distance Mag. Time & Date
Boley, Oklahoma 116 miles 3.5 3:34 PM CDT
2014-10-20
Minimum magnitude displayed is 2.5.

Coastal Water Temperatures

Place Temperature
No Stations Reporting

Nearby Weather Stations